sensor_id;sensor_type;location;lat;lon;timestamp;temperature;humidity
22633;DHT22;11483;55.828;37.488;2023-01-10T00:01:36;-15.90;99.90
22633;DHT22;11483;55.828;37.488;2023-01-10T00:04:02;-16.10;99.90
22633;DHT22;11483;55.828;37.488;2023-01-10T00:06:28;-16.00;99.90
22633;DHT22;11483;55.828;37.488;2023-01-10T00:08:54;-15.40;99.90
22633;DHT22;11483;55.828;37.488;2023-01-10T00:11:22;-14.80;99.90
22633;DHT22;11483;55.828;37.488;2023-01-10T00:14:07;-16.00;99.90
22633;DHT22;11483;55.828;37.488;2023-01-10T00:16:33;-16.00;99.90
22633;DHT22;11483;55.828;37.488;2023-01-10T00:18:59;-15.90;99.90
22633;DHT22;11483;55.828;37.488;2023-01-10T00:21:24;-15.90;99.90
22633;DHT22;11483;55.828;37.488;2023-01-10T00:23:53;-15.90;99.90
22633;DHT22;11483;55.828;37.488;2023-01-10T00:26:19;-15.90;99.90
22633;DHT22;11483;55.828;37.488;2023-01-10T00:28:45;-15.90;99.90
22633;DHT22;11483;55.828;37.488;2023-01-10T00:31:11;-15.20;99.90
22633;DHT22;11483;55.828;37.488;2023-01-10T00:33:38;-15.80;99.90
22633;DHT22;11483;55.828;37.488;2023-01-10T00:36:06;-15.90;99.90
22633;DHT22;11483;55.828;37.488;2023-01-10T00:38:33;-15.90;99.90
22633;DHT22;11483;55.828;37.488;2023-01-10T00:40:59;-15.90;99.90
22633;DHT22;11483;55.828;37.488;2023-01-10T00:43:25;-15.90;99.90
22633;DHT22;11483;55.828;37.488;2023-01-10T00:46:10;-15.90;99.90
22633;DHT22;11483;55.828;37.488;2023-01-10T00:48:36;-15.90;99.90
22633;DHT22;11483;55.828;37.488;2023-01-10T00:51:03;-15.90;99.90
22633;DHT22;11483;55.828;37.488;2023-01-10T00:53:29;-15.80;99.90
22633;DHT22;11483;55.828;37.488;2023-01-10T00:55:55;-15.90;99.90
22633;DHT22;11483;55.828;37.488;2023-01-10T00:58:22;-15.80;99.90
22633;DHT22;11483;55.828;37.488;2023-01-10T01:00:48;-15.80;99.90
22633;DHT22;11483;55.828;37.488;2023-01-10T01:03:16;-15.80;99.90
22633;DHT22;11483;55.828;37.488;2023-01-10T01:05:43;-15.80;99.90
22633;DHT22;11483;55.828;37.488;2023-01-10T01:08:11;-15.80;99.90
22633;DHT22;11483;55.828;37.488;2023-01-10T01:10:37;-15.80;99.90
22633;DHT22;11483;55.828;37.488;2023-01-10T01:13:15;-15.30;99.90
22633;DHT22;11483;55.828;37.488;2023-01-10T01:15:41;-15.80;99.90
22633;DHT22;11483;55.828;37.488;2023-01-10T01:18:14;-15.70;99.90
22633;DHT22;11483;55.828;37.488;2023-01-10T01:20:41;-15.80;99.90
22633;DHT22;11483;55.828;37.488;2023-01-10T01:23:07;-15.70;99.90
22633;DHT22;11483;55.828;37.488;2023-01-10T01:25:36;-15.70;99.90
22633;DHT22;11483;55.828;37.488;2023-01-10T01:28:02;-15.70;99.90
22633;DHT22;11483;55.828;37.488;2023-01-10T01:30:28;-15.20;99.90
22633;DHT22;11483;55.828;37.488;2023-01-10T01:32:54;-15.70;99.90
22633;DHT22;11483;55.828;37.488;2023-01-10T01:35:20;-15.70;99.90
22633;DHT22;11483;55.828;37.488;2023-01-10T01:37:45;-15.70;99.90
22633;DHT22;11483;55.828;37.488;2023-01-10T01:40:16;-15.60;99.90
22633;DHT22;11483;55.828;37.488;2023-01-10T01:42:43;-15.20;99.90
22633;DHT22;11483;55.828;37.488;2023-01-10T01:50:31;-15.40;99.90
22633;DHT22;11483;55.828;37.488;2023-01-10T01:53:02;-15.40;99.90
22633;DHT22;11483;55.828;37.488;2023-01-10T01:55:32;-14.60;99.90
22633;DHT22;11483;55.828;37.488;2023-01-10T01:58:02;-15.40;99.90
22633;DHT22;11483;55.828;37.488;2023-01-10T02:00:31;-15.50;99.90
22633;DHT22;11483;55.828;37.488;2023-01-10T02:02:58;-15.40;99.90
22633;DHT22;11483;55.828;37.488;2023-01-10T02:05:25;-15.40;99.90
22633;DHT22;11483;55.828;37.488;2023-01-10T02:07:54;-15.40;99.90
22633;DHT22;11483;55.828;37.488;2023-01-10T02:10:41;-15.40;99.90
22633;DHT22;11483;55.828;37.488;2023-01-10T02:13:10;-15.40;99.90
22633;DHT22;11483;55.828;37.488;2023-01-10T02:15:38;-15.30;99.90
22633;DHT22;11483;55.828;37.488;2023-01-10T02:18:04;-15.30;99.90
22633;DHT22;11483;55.828;37.488;2023-01-10T02:20:38;-15.30;99.90
22633;DHT22;11483;55.828;37.488;2023-01-10T02:23:22;-14.90;99.90
22633;DHT22;11483;55.828;37.488;2023-01-10T02:42:05;-15.10;99.90
22633;DHT22;11483;55.828;37.488;2023-01-10T02:44:51;-15.10;99.90
22633;DHT22;11483;55.828;37.488;2023-01-10T02:47:19;-15.00;99.90
22633;DHT22;11483;55.828;37.488;2023-01-10T02:49:47;-15.00;99.90
22633;DHT22;11483;55.828;37.488;2023-01-10T02:52:19;-15.00;99.90
22633;DHT22;11483;55.828;37.488;2023-01-10T02:54:48;-15.00;99.90
22633;DHT22;11483;55.828;37.488;2023-01-10T03:00:22;-15.00;99.90
22633;DHT22;11483;55.828;37.488;2023-01-10T03:03:35;-14.40;99.90
22633;DHT22;11483;55.828;37.488;2023-01-10T03:06:24;-15.00;99.90
22633;DHT22;11483;55.828;37.488;2023-01-10T03:09:13;-15.00;99.90
22633;DHT22;11483;55.828;37.488;2023-01-10T03:11:41;-14.90;99.90
22633;DHT22;11483;55.828;37.488;2023-01-10T03:14:15;-14.90;99.90
22633;DHT22;11483;55.828;37.488;2023-01-10T03:16:47;-15.00;99.90
22633;DHT22;11483;55.828;37.488;2023-01-10T03:19:21;-15.00;99.90
22633;DHT22;11483;55.828;37.488;2023-01-10T03:21:52;-15.00;99.90
22633;DHT22;11483;55.828;37.488;2023-01-10T03:24:25;-15.10;99.90
22633;DHT22;11483;55.828;37.488;2023-01-10T03:27:06;-15.00;99.90
22633;DHT22;11483;55.828;37.488;2023-01-10T03:32:34;-15.00;99.90
22633;DHT22;11483;55.828;37.488;2023-01-10T03:35:01;-15.00;99.90
22633;DHT22;11483;55.828;37.488;2023-01-10T03:37:40;-14.90;99.90
22633;DHT22;11483;55.828;37.488;2023-01-10T03:40:19;-14.90;99.90
22633;DHT22;11483;55.828;37.488;2023-01-10T03:43:02;-14.90;99.90
22633;DHT22;11483;55.828;37.488;2023-01-10T03:45:54;-14.90;99.90
22633;DHT22;11483;55.828;37.488;2023-01-10T03:48:26;-14.80;99.90
22633;DHT22;11483;55.828;37.488;2023-01-10T03:50:54;-14.80;99.90
22633;DHT22;11483;55.828;37.488;2023-01-10T03:53:21;-14.90;99.90
22633;DHT22;11483;55.828;37.488;2023-01-10T03:55:48;-14.90;99.90
22633;DHT22;11483;55.828;37.488;2023-01-10T03:58:13;-14.80;99.90
22633;DHT22;11483;55.828;37.488;2023-01-10T04:00:41;-14.70;99.90
22633;DHT22;11483;55.828;37.488;2023-01-10T04:03:07;-14.80;99.90
22633;DHT22;11483;55.828;37.488;2023-01-10T04:05:34;-14.80;99.90
22633;DHT22;11483;55.828;37.488;2023-01-10T04:08:00;-14.80;99.90
22633;DHT22;11483;55.828;37.488;2023-01-10T04:10:26;-14.30;99.90
22633;DHT22;11483;55.828;37.488;2023-01-10T04:12:56;-14.00;99.90
22633;DHT22;11483;55.828;37.488;2023-01-10T04:15:23;-14.70;99.90
22633;DHT22;11483;55.828;37.488;2023-01-10T04:17:49;-14.70;99.90
22633;DHT22;11483;55.828;37.488;2023-01-10T04:20:15;-14.60;99.90
22633;DHT22;11483;55.828;37.488;2023-01-10T04:22:41;-14.60;99.90
22633;DHT22;11483;55.828;37.488;2023-01-10T04:25:07;-14.60;99.90
22633;DHT22;11483;55.828;37.488;2023-01-10T04:27:33;-14.60;99.90
22633;DHT22;11483;55.828;37.488;2023-01-10T04:29:59;-14.50;99.90
22633;DHT22;11483;55.828;37.488;2023-01-10T04:32:24;-14.50;99.90
22633;DHT22;11483;55.828;37.488;2023-01-10T04:34:50;-14.50;99.90
22633;DHT22;11483;55.828;37.488;2023-01-10T04:37:18;-14.60;99.90
22633;DHT22;11483;55.828;37.488;2023-01-10T04:39:44;-14.50;99.90
22633;DHT22;11483;55.828;37.488;2023-01-10T04:42:10;-14.50;99.90
22633;DHT22;11483;55.828;37.488;2023-01-10T04:44:36;-14.30;99.90
22633;DHT22;11483;55.828;37.488;2023-01-10T04:47:02;-14.50;99.90
22633;DHT22;11483;55.828;37.488;2023-01-10T04:49:28;-14.40;99.90
22633;DHT22;11483;55.828;37.488;2023-01-10T04:51:54;-14.40;99.90
22633;DHT22;11483;55.828;37.488;2023-01-10T04:54:23;-14.40;99.90
22633;DHT22;11483;55.828;37.488;2023-01-10T04:56:49;-14.40;99.90
22633;DHT22;11483;55.828;37.488;2023-01-10T04:59:15;-14.30;99.90
22633;DHT22;11483;55.828;37.488;2023-01-10T05:01:41;-13.80;99.90
22633;DHT22;11483;55.828;37.488;2023-01-10T05:04:07;-14.30;99.90
22633;DHT22;11483;55.828;37.488;2023-01-10T05:06:36;-14.70;99.90
22633;DHT22;11483;55.828;37.488;2023-01-10T05:09:06;-13.90;99.90
22633;DHT22;11483;55.828;37.488;2023-01-10T05:11:32;-14.20;99.90
22633;DHT22;11483;55.828;37.488;2023-01-10T05:13:58;-13.40;99.90
22633;DHT22;11483;55.828;37.488;2023-01-10T05:16:24;-14.10;99.90
22633;DHT22;11483;55.828;37.488;2023-01-10T05:18:50;-14.10;99.90
22633;DHT22;11483;55.828;37.488;2023-01-10T05:21:16;-14.10;99.90
22633;DHT22;11483;55.828;37.488;2023-01-10T05:23:42;-13.90;99.90
22633;DHT22;11483;55.828;37.488;2023-01-10T05:26:17;-13.70;99.90
22633;DHT22;11483;55.828;37.488;2023-01-10T05:28:43;-13.50;99.90
22633;DHT22;11483;55.828;37.488;2023-01-10T05:31:12;-14.00;99.90
22633;DHT22;11483;55.828;37.488;2023-01-10T05:33:38;-14.00;99.90
22633;DHT22;11483;55.828;37.488;2023-01-10T05:36:05;-13.90;99.90
22633;DHT22;11483;55.828;37.488;2023-01-10T05:38:32;-13.80;99.90
22633;DHT22;11483;55.828;37.488;2023-01-10T05:40:59;-13.80;99.90
22633;DHT22;11483;55.828;37.488;2023-01-10T05:43:25;-13.50;99.90
22633;DHT22;11483;55.828;37.488;2023-01-10T05:45:52;-13.70;99.90
22633;DHT22;11483;55.828;37.488;2023-01-10T05:48:18;-13.70;99.90
22633;DHT22;11483;55.828;37.488;2023-01-10T05:50:45;-13.70;99.90
22633;DHT22;11483;55.828;37.488;2023-01-10T05:53:11;-13.60;99.90
22633;DHT22;11483;55.828;37.488;2023-01-10T05:55:37;-13.70;99.90
22633;DHT22;11483;55.828;37.488;2023-01-10T05:58:03;-13.70;99.90
22633;DHT22;11483;55.828;37.488;2023-01-10T06:00:29;-13.60;99.90
22633;DHT22;11483;55.828;37.488;2023-01-10T06:02:56;-12.80;99.90
22633;DHT22;11483;55.828;37.488;2023-01-10T06:05:23;-12.90;99.90
22633;DHT22;11483;55.828;37.488;2023-01-10T06:07:49;-12.90;99.90
22633;DHT22;11483;55.828;37.488;2023-01-10T06:10:15;-13.60;99.90
22633;DHT22;11483;55.828;37.488;2023-01-10T06:12:42;-13.70;99.90
22633;DHT22;11483;55.828;37.488;2023-01-10T06:15:09;-13.60;99.90
22633;DHT22;11483;55.828;37.488;2023-01-10T06:17:35;-13.60;99.90
22633;DHT22;11483;55.828;37.488;2023-01-10T06:20:01;-13.60;99.90
22633;DHT22;11483;55.828;37.488;2023-01-10T06:22:27;-13.60;99.90
22633;DHT22;11483;55.828;37.488;2023-01-10T06:24:53;-13.50;99.90
22633;DHT22;11483;55.828;37.488;2023-01-10T06:27:20;-12.90;99.90
22633;DHT22;11483;55.828;37.488;2023-01-10T06:29:46;-13.50;99.90
22633;DHT22;11483;55.828;37.488;2023-01-10T06:32:12;-13.50;99.90
22633;DHT22;11483;55.828;37.488;2023-01-10T06:34:38;-13.40;99.90
22633;DHT22;11483;55.828;37.488;2023-01-10T06:37:04;-13.40;99.90
22633;DHT22;11483;55.828;37.488;2023-01-10T06:39:29;-13.30;99.90
22633;DHT22;11483;55.828;37.488;2023-01-10T06:41:55;-13.30;99.90
22633;DHT22;11483;55.828;37.488;2023-01-10T06:44:21;-13.30;99.90
22633;DHT22;11483;55.828;37.488;2023-01-10T06:46:47;-13.00;99.90
22633;DHT22;11483;55.828;37.488;2023-01-10T06:49:13;-12.80;99.90
22633;DHT22;11483;55.828;37.488;2023-01-10T06:51:39;-13.00;99.90
22633;DHT22;11483;55.828;37.488;2023-01-10T06:54:05;-13.10;99.90
22633;DHT22;11483;55.828;37.488;2023-01-10T06:56:31;-12.40;99.90
22633;DHT22;11483;55.828;37.488;2023-01-10T06:58:57;-12.90;99.90
22633;DHT22;11483;55.828;37.488;2023-01-10T07:01:22;-12.90;99.90
22633;DHT22;11483;55.828;37.488;2023-01-10T07:03:48;-12.90;99.90
22633;DHT22;11483;55.828;37.488;2023-01-10T07:06:14;-12.20;99.90
22633;DHT22;11483;55.828;37.488;2023-01-10T07:08:43;-12.70;99.90
22633;DHT22;11483;55.828;37.488;2023-01-10T07:11:10;-12.00;99.90
22633;DHT22;11483;55.828;37.488;2023-01-10T07:13:36;-12.70;99.90
22633;DHT22;11483;55.828;37.488;2023-01-10T07:16:13;-12.70;99.90
22633;DHT22;11483;55.828;37.488;2023-01-10T07:18:40;-12.40;99.90
22633;DHT22;11483;55.828;37.488;2023-01-10T07:21:08;-12.60;99.90
22633;DHT22;11483;55.828;37.488;2023-01-10T07:23:34;-12.60;99.90
22633;DHT22;11483;55.828;37.488;2023-01-10T07:26:05;-12.60;99.90
22633;DHT22;11483;55.828;37.488;2023-01-10T07:28:31;-12.50;99.90
22633;DHT22;11483;55.828;37.488;2023-01-10T07:31:03;-12.50;99.90
22633;DHT22;11483;55.828;37.488;2023-01-10T07:33:30;-12.50;99.90
22633;DHT22;11483;55.828;37.488;2023-01-10T07:35:59;-11.80;99.90
22633;DHT22;11483;55.828;37.488;2023-01-10T07:38:26;-12.40;99.90
22633;DHT22;11483;55.828;37.488;2023-01-10T07:40:52;-12.30;99.90
22633;DHT22;11483;55.828;37.488;2023-01-10T07:43:18;-12.20;99.90
22633;DHT22;11483;55.828;37.488;2023-01-10T07:45:44;-12.20;99.90
22633;DHT22;11483;55.828;37.488;2023-01-10T07:48:10;-12.10;99.90
22633;DHT22;11483;55.828;37.488;2023-01-10T07:50:36;-12.00;99.90
22633;DHT22;11483;55.828;37.488;2023-01-10T07:53:04;-11.80;99.90
22633;DHT22;11483;55.828;37.488;2023-01-10T07:55:30;-11.40;99.90
22633;DHT22;11483;55.828;37.488;2023-01-10T07:57:59;-11.90;99.90
22633;DHT22;11483;55.828;37.488;2023-01-10T08:00:25;-11.70;99.90
22633;DHT22;11483;55.828;37.488;2023-01-10T08:02:53;-11.90;99.90
22633;DHT22;11483;55.828;37.488;2023-01-10T08:05:19;-11.80;99.90
22633;DHT22;11483;55.828;37.488;2023-01-10T08:07:45;-11.80;99.90
22633;DHT22;11483;55.828;37.488;2023-01-10T08:10:11;-11.70;99.90
22633;DHT22;11483;55.828;37.488;2023-01-10T08:12:37;-11.60;99.90
22633;DHT22;11483;55.828;37.488;2023-01-10T08:15:03;-11.60;99.90
22633;DHT22;11483;55.828;37.488;2023-01-10T08:17:35;-11.60;99.90
22633;DHT22;11483;55.828;37.488;2023-01-10T08:20:01;-11.50;99.90
22633;DHT22;11483;55.828;37.488;2023-01-10T08:22:27;-11.50;99.90
22633;DHT22;11483;55.828;37.488;2023-01-10T08:24:53;-11.40;99.90
22633;DHT22;11483;55.828;37.488;2023-01-10T08:27:19;-11.30;99.90
22633;DHT22;11483;55.828;37.488;2023-01-10T08:29:45;-10.70;99.90
22633;DHT22;11483;55.828;37.488;2023-01-10T08:32:11;-11.10;99.90
22633;DHT22;11483;55.828;37.488;2023-01-10T08:34:37;-11.00;99.90
22633;DHT22;11483;55.828;37.488;2023-01-10T08:37:03;-11.00;99.90
22633;DHT22;11483;55.828;37.488;2023-01-10T08:39:29;-10.80;99.90
22633;DHT22;11483;55.828;37.488;2023-01-10T08:41:56;-10.80;99.90
22633;DHT22;11483;55.828;37.488;2023-01-10T08:44:22;-10.10;99.90
22633;DHT22;11483;55.828;37.488;2023-01-10T08:46:48;-10.80;99.90
22633;DHT22;11483;55.828;37.488;2023-01-10T08:49:14;-10.70;99.90
22633;DHT22;11483;55.828;37.488;2023-01-10T08:51:40;-10.10;99.90
22633;DHT22;11483;55.828;37.488;2023-01-10T08:54:06;-10.80;99.90
22633;DHT22;11483;55.828;37.488;2023-01-10T08:56:32;-10.70;99.90
22633;DHT22;11483;55.828;37.488;2023-01-10T08:58:58;-10.60;99.90
22633;DHT22;11483;55.828;37.488;2023-01-10T09:01:24;-10.50;99.90
22633;DHT22;11483;55.828;37.488;2023-01-10T09:03:50;-10.40;99.90
22633;DHT22;11483;55.828;37.488;2023-01-10T09:06:16;-10.40;99.90
22633;DHT22;11483;55.828;37.488;2023-01-10T09:08:42;-10.40;99.90
22633;DHT22;11483;55.828;37.488;2023-01-10T09:11:08;-10.30;99.90
22633;DHT22;11483;55.828;37.488;2023-01-10T09:13:34;-10.30;99.90
22633;DHT22;11483;55.828;37.488;2023-01-10T09:16:02;-10.30;99.90
22633;DHT22;11483;55.828;37.488;2023-01-10T09:18:28;-10.30;99.90
22633;DHT22;11483;55.828;37.488;2023-01-10T09:20:54;-10.30;99.90
22633;DHT22;11483;55.828;37.488;2023-01-10T09:23:21;-9.90;99.90
22633;DHT22;11483;55.828;37.488;2023-01-10T09:25:52;-10.20;99.90
22633;DHT22;11483;55.828;37.488;2023-01-10T09:28:19;-10.20;99.90
22633;DHT22;11483;55.828;37.488;2023-01-10T09:30:46;-10.20;99.90
22633;DHT22;11483;55.828;37.488;2023-01-10T09:33:12;-10.20;99.90
22633;DHT22;11483;55.828;37.488;2023-01-10T09:35:40;-10.20;99.90
22633;DHT22;11483;55.828;37.488;2023-01-10T09:38:11;-10.20;99.90
22633;DHT22;11483;55.828;37.488;2023-01-10T09:41:00;-10.20;99.90
22633;DHT22;11483;55.828;37.488;2023-01-10T09:46:38;-10.10;99.90
22633;DHT22;11483;55.828;37.488;2023-01-10T09:49:22;-10.20;99.90
22633;DHT22;11483;55.828;37.488;2023-01-10T09:51:52;-10.20;99.90
22633;DHT22;11483;55.828;37.488;2023-01-10T09:54:30;-10.20;99.90
22633;DHT22;11483;55.828;37.488;2023-01-10T09:56:59;-10.10;99.90
22633;DHT22;11483;55.828;37.488;2023-01-10T09:59:39;-10.10;99.90
22633;DHT22;11483;55.828;37.488;2023-01-10T10:04:39;-10.20;99.90
22633;DHT22;11483;55.828;37.488;2023-01-10T10:07:18;-10.10;99.90
22633;DHT22;11483;55.828;37.488;2023-01-10T10:09:45;-10.10;99.90
22633;DHT22;11483;55.828;37.488;2023-01-10T10:27:15;-10.00;99.90
22633;DHT22;11483;55.828;37.488;2023-01-10T10:34:47;-9.90;99.90
22633;DHT22;11483;55.828;37.488;2023-01-10T10:37:24;-10.00;99.90
22633;DHT22;11483;55.828;37.488;2023-01-10T10:40:01;-9.70;99.90
22633;DHT22;11483;55.828;37.488;2023-01-10T10:42:37;-9.80;99.90
22633;DHT22;11483;55.828;37.488;2023-01-10T10:45:25;-9.90;99.90
22633;DHT22;11483;55.828;37.488;2023-01-10T10:48:02;-9.80;99.90
22633;DHT22;11483;55.828;37.488;2023-01-10T10:50:35;-9.80;99.90
22633;DHT22;11483;55.828;37.488;2023-01-10T10:53:04;-9.80;99.90
22633;DHT22;11483;55.828;37.488;2023-01-10T10:55:35;-9.80;99.90
22633;DHT22;11483;55.828;37.488;2023-01-10T10:58:03;-9.80;99.90
22633;DHT22;11483;55.828;37.488;2023-01-10T11:00:30;-9.80;99.90
22633;DHT22;11483;55.828;37.488;2023-01-10T11:03:04;-9.80;99.90
22633;DHT22;11483;55.828;37.488;2023-01-10T11:05:36;-9.80;99.90
22633;DHT22;11483;55.828;37.488;2023-01-10T11:08:06;-9.80;99.90
22633;DHT22;11483;55.828;37.488;2023-01-10T11:10:37;-9.70;99.90
22633;DHT22;11483;55.828;37.488;2023-01-10T11:13:21;-9.70;99.90
22633;DHT22;11483;55.828;37.488;2023-01-10T11:15:50;-9.60;99.90
22633;DHT22;11483;55.828;37.488;2023-01-10T11:18:19;-9.70;99.90
22633;DHT22;11483;55.828;37.488;2023-01-10T11:20:52;-9.70;99.90
22633;DHT22;11483;55.828;37.488;2023-01-10T11:23:36;-9.70;99.90
22633;DHT22;11483;55.828;37.488;2023-01-10T11:26:26;-9.70;99.90
22633;DHT22;11483;55.828;37.488;2023-01-10T11:29:06;-9.50;99.90
22633;DHT22;11483;55.828;37.488;2023-01-10T11:31:35;-9.70;99.90
22633;DHT22;11483;55.828;37.488;2023-01-10T11:34:05;-9.70;99.90
22633;DHT22;11483;55.828;37.488;2023-01-10T11:37:25;-9.60;99.90
22633;DHT22;11483;55.828;37.488;2023-01-10T11:42:46;-9.60;99.90
22633;DHT22;11483;55.828;37.488;2023-01-10T11:50:38;-9.50;99.90
22633;DHT22;11483;55.828;37.488;2023-01-10T11:53:05;-9.40;99.90
22633;DHT22;11483;55.828;37.488;2023-01-10T11:55:35;-9.20;99.90
22633;DHT22;11483;55.828;37.488;2023-01-10T11:58:08;-9.20;99.90
22633;DHT22;11483;55.828;37.488;2023-01-10T12:00:43;-9.20;99.90
22633;DHT22;11483;55.828;37.488;2023-01-10T12:05:54;-9.00;99.90
22633;DHT22;11483;55.828;37.488;2023-01-10T12:08:32;-9.10;99.90
22633;DHT22;11483;55.828;37.488;2023-01-10T12:11:22;-9.00;99.90
22633;DHT22;11483;55.828;37.488;2023-01-10T12:13:51;-9.00;99.90
22633;DHT22;11483;55.828;37.488;2023-01-10T12:16:23;-9.00;99.90
22633;DHT22;11483;55.828;37.488;2023-01-10T12:18:51;-9.00;99.90
22633;DHT22;11483;55.828;37.488;2023-01-10T12:21:36;-9.10;99.90
22633;DHT22;11483;55.828;37.488;2023-01-10T12:24:21;-9.10;99.90
22633;DHT22;11483;55.828;37.488;2023-01-10T12:26:48;-9.10;99.90
22633;DHT22;11483;55.828;37.488;2023-01-10T12:29:28;-9.40;99.90
22633;DHT22;11483;55.828;37.488;2023-01-10T12:31:57;-9.00;99.90
22633;DHT22;11483;55.828;37.488;2023-01-10T12:34:34;-9.20;99.90
22633;DHT22;11483;55.828;37.488;2023-01-10T12:37:30;-9.20;99.90
22633;DHT22;11483;55.828;37.488;2023-01-10T12:40:03;-9.30;99.90
22633;DHT22;11483;55.828;37.488;2023-01-10T12:42:48;-9.30;99.90
22633;DHT22;11483;55.828;37.488;2023-01-10T12:49:03;-9.50;99.90
22633;DHT22;11483;55.828;37.488;2023-01-10T12:51:32;-9.70;99.90
22633;DHT22;11483;55.828;37.488;2023-01-10T12:54:02;-9.50;99.90
22633;DHT22;11483;55.828;37.488;2023-01-10T12:56:31;-9.40;99.90
22633;DHT22;11483;55.828;37.488;2023-01-10T12:59:01;-9.50;99.90
22633;DHT22;11483;55.828;37.488;2023-01-10T13:01:34;-9.50;99.90
22633;DHT22;11483;55.828;37.488;2023-01-10T13:04:19;-9.50;99.90
22633;DHT22;11483;55.828;37.488;2023-01-10T13:06:47;-9.40;99.90
22633;DHT22;11483;55.828;37.488;2023-01-10T13:09:22;-9.50;99.90
22633;DHT22;11483;55.828;37.488;2023-01-10T13:20:23;-9.50;99.90
22633;DHT22;11483;55.828;37.488;2023-01-10T13:22:52;-9.60;99.90
22633;DHT22;11483;55.828;37.488;2023-01-10T13:25:33;-9.50;99.90
22633;DHT22;11483;55.828;37.488;2023-01-10T13:28:24;-9.60;99.90
22633;DHT22;11483;55.828;37.488;2023-01-10T13:30:56;-9.60;99.90
22633;DHT22;11483;55.828;37.488;2023-01-10T13:36:24;-9.60;99.90
22633;DHT22;11483;55.828;37.488;2023-01-10T13:38:58;-9.70;99.90
22633;DHT22;11483;55.828;37.488;2023-01-10T13:52:53;-9.50;99.90
22633;DHT22;11483;55.828;37.488;2023-01-10T13:55:31;-9.50;99.90
22633;DHT22;11483;55.828;37.488;2023-01-10T13:58:02;-9.50;99.90
22633;DHT22;11483;55.828;37.488;2023-01-10T14:09:00;-9.50;99.90
22633;DHT22;11483;55.828;37.488;2023-01-10T14:11:51;-9.30;99.90
22633;DHT22;11483;55.828;37.488;2023-01-10T14:17:23;-9.40;99.90
22633;DHT22;11483;55.828;37.488;2023-01-10T14:22:36;-9.50;99.90
22633;DHT22;11483;55.828;37.488;2023-01-10T14:25:14;-9.50;99.90
22633;DHT22;11483;55.828;37.488;2023-01-10T14:27:45;-9.50;99.90
22633;DHT22;11483;55.828;37.488;2023-01-10T14:30:25;-9.50;99.90
22633;DHT22;11483;55.828;37.488;2023-01-10T14:32:53;-9.40;99.90
22633;DHT22;11483;55.828;37.488;2023-01-10T14:35:22;-9.40;99.90
22633;DHT22;11483;55.828;37.488;2023-01-10T14:37:55;-9.40;99.90
22633;DHT22;11483;55.828;37.488;2023-01-10T14:40:28;-9.40;99.90
22633;DHT22;11483;55.828;37.488;2023-01-10T14:43:03;-9.40;99.90
22633;DHT22;11483;55.828;37.488;2023-01-10T14:45:45;-9.50;99.90
22633;DHT22;11483;55.828;37.488;2023-01-10T14:48:31;-9.40;99.90
22633;DHT22;11483;55.828;37.488;2023-01-10T14:51:17;-9.40;99.90
22633;DHT22;11483;55.828;37.488;2023-01-10T14:53:46;-9.40;99.90
22633;DHT22;11483;55.828;37.488;2023-01-10T14:56:21;-9.40;99.90
22633;DHT22;11483;55.828;37.488;2023-01-10T14:58:47;-9.30;99.90
22633;DHT22;11483;55.828;37.488;2023-01-10T15:01:25;-9.30;99.90
22633;DHT22;11483;55.828;37.488;2023-01-10T15:03:52;-9.30;99.90
22633;DHT22;11483;55.828;37.488;2023-01-10T15:06:18;-9.20;99.90
22633;DHT22;11483;55.828;37.488;2023-01-10T15:08:44;-9.20;99.90
22633;DHT22;11483;55.828;37.488;2023-01-10T15:11:12;-9.20;99.90
22633;DHT22;11483;55.828;37.488;2023-01-10T15:13:49;-9.10;99.90
22633;DHT22;11483;55.828;37.488;2023-01-10T15:16:19;-9.10;99.90
22633;DHT22;11483;55.828;37.488;2023-01-10T15:18:46;-9.10;99.90
22633;DHT22;11483;55.828;37.488;2023-01-10T15:21:14;-9.10;99.90
22633;DHT22;11483;55.828;37.488;2023-01-10T15:23:45;-9.10;99.90
22633;DHT22;11483;55.828;37.488;2023-01-10T15:26:12;-9.10;99.90
22633;DHT22;11483;55.828;37.488;2023-01-10T15:28:41;-9.20;99.90
22633;DHT22;11483;55.828;37.488;2023-01-10T15:31:08;-9.10;99.90
22633;DHT22;11483;55.828;37.488;2023-01-10T15:33:36;-9.10;99.90
22633;DHT22;11483;55.828;37.488;2023-01-10T15:36:13;-9.00;99.90
22633;DHT22;11483;55.828;37.488;2023-01-10T15:38:43;-9.10;99.90
22633;DHT22;11483;55.828;37.488;2023-01-10T15:41:16;-9.10;99.90
22633;DHT22;11483;55.828;37.488;2023-01-10T15:43:42;-9.10;99.90
22633;DHT22;11483;55.828;37.488;2023-01-10T15:46:20;-9.10;99.90
22633;DHT22;11483;55.828;37.488;2023-01-10T15:48:55;-9.00;99.90
22633;DHT22;11483;55.828;37.488;2023-01-10T15:51:33;-9.10;99.90
22633;DHT22;11483;55.828;37.488;2023-01-10T15:57:23;-9.30;99.90
22633;DHT22;11483;55.828;37.488;2023-01-10T15:59:46;-9.30;99.90
22633;DHT22;11483;55.828;37.488;2023-01-10T16:02:21;-9.30;99.90
22633;DHT22;11483;55.828;37.488;2023-01-10T16:04:54;-9.30;99.90
22633;DHT22;11483;55.828;37.488;2023-01-10T16:07:34;-9.30;99.90
22633;DHT22;11483;55.828;37.488;2023-01-10T16:10:21;-9.30;99.90
22633;DHT22;11483;55.828;37.488;2023-01-10T16:12:49;-9.20;99.90
22633;DHT22;11483;55.828;37.488;2023-01-10T16:15:35;-9.30;99.90
22633;DHT22;11483;55.828;37.488;2023-01-10T16:18:03;-9.40;99.90
22633;DHT22;11483;55.828;37.488;2023-01-10T16:20:31;-9.40;99.90
22633;DHT22;11483;55.828;37.488;2023-01-10T16:22:59;-9.40;99.90
22633;DHT22;11483;55.828;37.488;2023-01-10T16:25:35;-9.30;99.90
22633;DHT22;11483;55.828;37.488;2023-01-10T16:28:04;-9.30;99.90
22633;DHT22;11483;55.828;37.488;2023-01-10T16:30:32;-9.30;99.90
22633;DHT22;11483;55.828;37.488;2023-01-10T16:33:01;-9.30;99.90
22633;DHT22;11483;55.828;37.488;2023-01-10T16:35:27;-9.30;99.90
22633;DHT22;11483;55.828;37.488;2023-01-10T16:37:55;-9.30;99.90
22633;DHT22;11483;55.828;37.488;2023-01-10T16:40:28;-9.40;99.90
22633;DHT22;11483;55.828;37.488;2023-01-10T16:42:57;-9.40;99.90
22633;DHT22;11483;55.828;37.488;2023-01-10T16:45:52;-9.40;99.90
22633;DHT22;11483;55.828;37.488;2023-01-10T16:48:19;-9.40;99.90
22633;DHT22;11483;55.828;37.488;2023-01-10T16:50:47;-9.30;99.90
22633;DHT22;11483;55.828;37.488;2023-01-10T16:53:15;-9.30;99.90
22633;DHT22;11483;55.828;37.488;2023-01-10T16:55:47;-9.30;99.90
22633;DHT22;11483;55.828;37.488;2023-01-10T16:58:16;-9.40;99.90
22633;DHT22;11483;55.828;37.488;2023-01-10T17:00:45;-9.40;99.90
22633;DHT22;11483;55.828;37.488;2023-01-10T17:03:15;-9.50;99.90
22633;DHT22;11483;55.828;37.488;2023-01-10T17:05:43;-9.50;99.90
22633;DHT22;11483;55.828;37.488;2023-01-10T17:08:18;-9.40;99.90
22633;DHT22;11483;55.828;37.488;2023-01-10T17:10:46;-9.40;99.90
22633;DHT22;11483;55.828;37.488;2023-01-10T17:13:15;-9.40;99.90
22633;DHT22;11483;55.828;37.488;2023-01-10T17:15:42;-9.60;99.90